sensor_id;sensor_type;location;lat;lon;timestamp;pressure;altitude;pressure_sealevel;temperature;humidity
77685;BME280;66844;46.092;18.268;2023-09-19T00:00:24;98910.03;;;23.31;65.81
77685;BME280;66844;46.092;18.268;2023-09-19T00:00:59;98913.59;;;23.31;66.44
77685;BME280;66844;46.092;18.268;2023-09-19T00:01:31;98915.66;;;23.29;66.12
77685;BME280;66844;46.092;18.268;2023-09-19T00:02:03;98911.63;;;23.25;67.13
77685;BME280;66844;46.092;18.268;2023-09-19T00:02:40;98907.03;;;23.26;66.97
77685;BME280;66844;46.092;18.268;2023-09-19T00:03:12;98915.81;;;23.28;66.09
77685;BME280;66844;46.092;18.268;2023-09-19T00:03:44;98908.69;;;23.27;66.06
77685;BME280;66844;46.092;18.268;2023-09-19T00:04:16;98907.88;;;23.26;67.00
77685;BME280;66844;46.092;18.268;2023-09-19T00:04:51;98905.97;;;23.27;66.33
77685;BME280;66844;46.092;18.268;2023-09-19T00:05:24;98912.94;;;23.29;66.96
77685;BME280;66844;46.092;18.268;2023-09-19T00:05:59;98912.09;;;23.29;66.49
77685;BME280;66844;46.092;18.268;2023-09-19T00:06:31;98909.06;;;23.24;67.03
77685;BME280;66844;46.092;18.268;2023-09-19T00:07:03;98913.66;;;23.23;66.92
77685;BME280;66844;46.092;18.268;2023-09-19T00:07:35;98907.56;;;23.21;66.35
77685;BME280;66844;46.092;18.268;2023-09-19T00:08:08;98907.22;;;23.24;66.64
77685;BME280;66844;46.092;18.268;2023-09-19T00:08:41;98904.66;;;23.23;66.97
77685;BME280;66844;46.092;18.268;2023-09-19T00:09:15;98909.06;;;23.24;66.66
77685;BME280;66844;46.092;18.268;2023-09-19T00:09:47;98909.06;;;23.24;66.67
77685;BME280;66844;46.092;18.268;2023-09-19T00:10:23;98903.00;;;23.22;67.39
77685;BME280;66844;46.092;18.268;2023-09-19T00:10:56;98901.31;;;23.20;67.31
77685;BME280;66844;46.092;18.268;2023-09-19T00:11:30;98901.31;;;23.20;66.67
77685;BME280;66844;46.092;18.268;2023-09-19T00:12:06;98899.59;;;23.19;67.25
77685;BME280;66844;46.092;18.268;2023-09-19T00:12:43;98899.13;;;23.16;66.56
77685;BME280;66844;46.092;18.268;2023-09-19T00:13:15;98890.50;;;23.12;67.44
77685;BME280;66844;46.092;18.268;2023-09-19T00:13:48;98891.91;;;23.08;67.29
77685;BME280;66844;46.092;18.268;2023-09-19T00:14:25;98889.19;;;23.08;67.23
77685;BME280;66844;46.092;18.268;2023-09-19T00:14:57;98891.41;;;23.05;67.76
77685;BME280;66844;46.092;18.268;2023-09-19T00:15:28;98889.91;;;23.02;67.76
77685;BME280;66844;46.092;18.268;2023-09-19T00:16:00;98887.38;;;23.01;67.67
77685;BME280;66844;46.092;18.268;2023-09-19T00:16:33;98890.09;;;23.01;67.91
77685;BME280;66844;46.092;18.268;2023-09-19T00:17:05;98888.91;;;23.03;68.39
77685;BME280;66844;46.092;18.268;2023-09-19T00:17:40;98890.94;;;23.01;68.49
77685;BME280;66844;46.092;18.268;2023-09-19T00:18:12;98885.50;;;23.01;68.16
77685;BME280;66844;46.092;18.268;2023-09-19T00:18:45;98882.16;;;22.99;67.97
77685;BME280;66844;46.092;18.268;2023-09-19T00:19:17;98884.66;;;23.01;68.30
77685;BME280;66844;46.092;18.268;2023-09-19T00:19:49;98881.94;;;23.01;68.07
77685;BME280;66844;46.092;18.268;2023-09-19T00:20:21;98881.09;;;23.00;67.94
77685;BME280;66844;46.092;18.268;2023-09-19T00:20:58;98880.63;;;22.97;68.61
77685;BME280;66844;46.092;18.268;2023-09-19T00:21:31;98878.75;;;22.97;68.60
77685;BME280;66844;46.092;18.268;2023-09-19T00:22:04;98886.91;;;22.97;68.73
77685;BME280;66844;46.092;18.268;2023-09-19T00:22:39;98878.97;;;22.96;68.84
77685;BME280;66844;46.092;18.268;2023-09-19T00:23:11;98885.25;;;22.96;68.43
77685;BME280;66844;46.092;18.268;2023-09-19T00:23:43;98883.06;;;22.92;68.17
77685;BME280;66844;46.092;18.268;2023-09-19T00:24:15;98886.13;;;22.89;68.50
77685;BME280;66844;46.092;18.268;2023-09-19T00:24:48;98883.22;;;22.90;68.66
77685;BME280;66844;46.092;18.268;2023-09-19T00:25:20;98879.66;;;22.90;68.47
77685;BME280;66844;46.092;18.268;2023-09-19T00:25:53;98879.66;;;22.90;68.79
77685;BME280;66844;46.092;18.268;2023-09-19T00:26:29;98887.81;;;22.90;68.24
77685;BME280;66844;46.092;18.268;2023-09-19T00:27:02;98874.97;;;22.84;68.91
77685;BME280;66844;46.092;18.268;2023-09-19T00:27:35;98888.00;;;22.88;69.20
77685;BME280;66844;46.092;18.268;2023-09-19T00:28:13;98887.53;;;22.85;69.50
77685;BME280;66844;46.092;18.268;2023-09-19T00:28:46;98877.84;;;22.82;69.05
77685;BME280;66844;46.092;18.268;2023-09-19T00:29:18;98885.66;;;22.85;69.28
77685;BME280;66844;46.092;18.268;2023-09-19T00:29:50;98883.97;;;22.84;69.50
77685;BME280;66844;46.092;18.268;2023-09-19T00:30:24;98884.97;;;22.83;69.40
77685;BME280;66844;46.092;18.268;2023-09-19T00:30:56;98880.78;;;22.81;69.59
77685;BME280;66844;46.092;18.268;2023-09-19T00:31:28;98879.72;;;22.82;69.33
77685;BME280;66844;46.092;18.268;2023-09-19T00:32:02;98880.56;;;22.82;69.81
77685;BME280;66844;46.092;18.268;2023-09-19T00:32:37;98880.41;;;22.84;69.36
77685;BME280;66844;46.092;18.268;2023-09-19T00:33:09;98877.69;;;22.84;69.29
77685;BME280;66844;46.092;18.268;2023-09-19T00:33:43;98877.69;;;22.84;69.56
77685;BME280;66844;46.092;18.268;2023-09-19T00:34:15;98876.69;;;22.85;69.34
77685;BME280;66844;46.092;18.268;2023-09-19T00:34:48;98880.22;;;22.85;69.33
77685;BME280;66844;46.092;18.268;2023-09-19T00:35:23;98877.22;;;22.80;69.76
77685;BME280;66844;46.092;18.268;2023-09-19T00:35:56;98879.72;;;22.82;69.71
77685;BME280;66844;46.092;18.268;2023-09-19T00:36:33;98879.72;;;22.82;69.45
77685;BME280;66844;46.092;18.268;2023-09-19T00:37:05;98877.84;;;22.82;69.72
77685;BME280;66844;46.092;18.268;2023-09-19T00:37:38;98880.56;;;22.82;69.72
77685;BME280;66844;46.092;18.268;2023-09-19T00:38:11;98882.63;;;22.80;69.82
77685;BME280;66844;46.092;18.268;2023-09-19T00:38:43;98874.66;;;22.79;69.00
77685;BME280;66844;46.092;18.268;2023-09-19T00:39:17;98886.38;;;22.79;69.62
77685;BME280;66844;46.092;18.268;2023-09-19T00:39:52;98877.56;;;22.77;69.61
77685;BME280;66844;46.092;18.268;2023-09-19T00:40:23;98878.44;;;22.78;69.26
77685;BME280;66844;46.092;18.268;2023-09-19T00:40:55;98875.88;;;22.76;69.52
77685;BME280;66844;46.092;18.268;2023-09-19T00:41:34;98872.31;;;22.76;69.30
77685;BME280;66844;46.092;18.268;2023-09-19T00:42:18;98880.66;;;22.74;69.32
77685;BME280;66844;46.092;18.268;2023-09-19T00:42:51;98876.91;;;22.75;70.19
77685;BME280;66844;46.092;18.268;2023-09-19T00:43:23;98879.13;;;22.71;69.60
77685;BME280;66844;46.092;18.268;2023-09-19T00:43:56;98877.94;;;22.74;70.27
77685;BME280;66844;46.092;18.268;2023-09-19T00:44:28;98879.97;;;22.72;69.61
77685;BME280;66844;46.092;18.268;2023-09-19T00:45:00;98870.81;;;22.73;69.78
77685;BME280;66844;46.092;18.268;2023-09-19T00:45:36;98877.94;;;22.74;70.06
77685;BME280;66844;46.092;18.268;2023-09-19T00:46:10;98873.69;;;22.71;69.91
77685;BME280;66844;46.092;18.268;2023-09-19T00:46:42;98875.78;;;22.69;70.04
77685;BME280;66844;46.092;18.268;2023-09-19T00:47:15;98877.63;;;22.69;69.94
77685;BME280;66844;46.092;18.268;2023-09-19T00:47:51;98878.47;;;22.69;70.24
77685;BME280;66844;46.092;18.268;2023-09-19T00:48:25;98881.53;;;22.66;70.38
77685;BME280;66844;46.092;18.268;2023-09-19T00:48:59;98887.13;;;22.65;70.01
77685;BME280;66844;46.092;18.268;2023-09-19T00:49:32;98884.41;;;22.65;70.02
77685;BME280;66844;46.092;18.268;2023-09-19T00:50:05;98887.97;;;22.65;69.99
77685;BME280;66844;46.092;18.268;2023-09-19T00:50:42;98880.34;;;22.61;70.66
77685;BME280;66844;46.092;18.268;2023-09-19T00:51:15;98880.03;;;22.56;71.13
77685;BME280;66844;46.092;18.268;2023-09-19T00:51:51;98880.88;;;22.56;70.53
77685;BME280;66844;46.092;18.268;2023-09-19T00:52:24;98874.81;;;22.54;70.62
77685;BME280;66844;46.092;18.268;2023-09-19T00:52:56;98874.97;;;22.53;71.13
77685;BME280;66844;46.092;18.268;2023-09-19T00:53:30;98881.41;;;22.52;70.84
77685;BME280;66844;46.092;18.268;2023-09-19T00:54:03;98878.06;;;22.50;71.15
77685;BME280;66844;46.092;18.268;2023-09-19T00:54:36;98882.25;;;22.52;70.80
77685;BME280;66844;46.092;18.268;2023-09-19T00:55:09;98876.00;;;22.52;71.33
77685;BME280;66844;46.092;18.268;2023-09-19T00:55:42;98884.13;;;22.52;70.94
77685;BME280;66844;46.092;18.268;2023-09-19T00:56:15;98880.75;;;22.50;70.98
77685;BME280;66844;46.092;18.268;2023-09-19T00:56:50;98881.63;;;22.50;70.97
77685;BME280;66844;46.092;18.268;2023-09-19T00:57:26;98876.56;;;22.47;71.63
77685;BME280;66844;46.092;18.268;2023-09-19T00:57:58;98878.22;;;22.48;71.21
77685;BME280;66844;46.092;18.268;2023-09-19T00:58:31;98875.88;;;22.45;71.15
77685;BME280;66844;46.092;18.268;2023-09-19T00:59:05;98877.75;;;22.45;71.91
77685;BME280;66844;46.092;18.268;2023-09-19T00:59:37;98873.16;;;22.45;71.65
77685;BME280;66844;46.092;18.268;2023-09-19T01:00:11;98876.91;;;22.44;71.54
77685;BME280;66844;46.092;18.268;2023-09-19T01:00:51;98871.81;;;22.41;71.81
77685;BME280;66844;46.092;18.268;2023-09-19T01:01:25;98881.81;;;22.41;71.65
77685;BME280;66844;46.092;18.268;2023-09-19T01:01:57;98879.13;;;22.41;71.61
77685;BME280;66844;46.092;18.268;2023-09-19T01:02:32;98880.16;;;22.40;71.57
77685;BME280;66844;46.092;18.268;2023-09-19T01:03:05;98875.75;;;22.39;71.66
77685;BME280;66844;46.092;18.268;2023-09-19T01:03:38;98873.88;;;22.39;71.39
77685;BME280;66844;46.092;18.268;2023-09-19T01:04:11;98874.75;;;22.40;72.13
77685;BME280;66844;46.092;18.268;2023-09-19T01:04:44;98864.53;;;22.42;71.94
77685;BME280;66844;46.092;18.268;2023-09-19T01:05:16;98872.03;;;22.40;72.08
77685;BME280;66844;46.092;18.268;2023-09-19T01:05:49;98876.13;;;22.36;71.59
77685;BME280;66844;46.092;18.268;2023-09-19T01:06:21;98874.06;;;22.38;72.21
77685;BME280;66844;46.092;18.268;2023-09-19T01:06:53;98871.72;;;22.35;72.33
77685;BME280;66844;46.092;18.268;2023-09-19T01:07:30;98869.84;;;22.35;72.41
77685;BME280;66844;46.092;18.268;2023-09-19T01:08:03;98873.41;;;22.36;71.99
77685;BME280;66844;46.092;18.268;2023-09-19T01:08:36;98873.56;;;22.34;72.34
77685;BME280;66844;46.092;18.268;2023-09-19T01:09:08;98869.84;;;22.35;72.14
77685;BME280;66844;46.092;18.268;2023-09-19T01:09:41;98874.63;;;22.33;72.63
77685;BME280;66844;46.092;18.268;2023-09-19T01:10:16;98873.75;;;22.33;72.10
77685;BME280;66844;46.092;18.268;2023-09-19T01:10:58;98875.44;;;22.34;72.67
77685;BME280;66844;46.092;18.268;2023-09-19T01:11:38;98874.63;;;22.33;72.03
77685;BME280;66844;46.092;18.268;2023-09-19T01:12:17;98876.81;;;22.30;72.25
77685;BME280;66844;46.092;18.268;2023-09-19T01:14:10;98878.34;;;22.32;72.14
77685;BME280;66844;46.092;18.268;2023-09-19T01:17:59;98868.66;;;22.30;72.39
77685;BME280;66844;46.092;18.268;2023-09-19T01:22:16;98866.31;;;22.27;72.02
77685;BME280;66844;46.092;18.268;2023-09-19T01:25:19;98869.03;;;22.27;72.23
77685;BME280;66844;46.092;18.268;2023-09-19T01:29:46;98869.41;;;22.23;72.57
77685;BME280;66844;46.092;18.268;2023-09-19T01:30:22;98867.69;;;22.22;72.83
77685;BME280;66844;46.092;18.268;2023-09-19T01:30:57;98869.41;;;22.23;72.41
77685;BME280;66844;46.092;18.268;2023-09-19T01:31:33;98863.13;;;22.23;72.68
77685;BME280;66844;46.092;18.268;2023-09-19T01:32:10;98865.84;;;22.23;73.27
77685;BME280;66844;46.092;18.268;2023-09-19T01:32:45;98866.19;;;22.20;72.80
77685;BME280;66844;46.092;18.268;2023-09-19T01:33:18;98867.53;;;22.24;73.01
77685;BME280;66844;46.092;18.268;2023-09-19T01:33:58;98866.03;;;22.21;72.45
77685;BME280;66844;46.092;18.268;2023-09-19T01:34:49;98866.69;;;22.23;72.20
77685;BME280;66844;46.092;18.268;2023-09-19T01:35:21;98862.97;;;22.24;72.71
77685;BME280;66844;46.092;18.268;2023-09-19T01:35:53;98869.59;;;22.22;73.09
77685;BME280;66844;46.092;18.268;2023-09-19T01:36:34;98867.69;;;22.22;72.86
77685;BME280;66844;46.092;18.268;2023-09-19T01:37:07;98871.25;;;22.23;73.04
77685;BME280;66844;46.092;18.268;2023-09-19T01:37:39;98868.75;;;22.21;72.25
77685;BME280;66844;46.092;18.268;2023-09-19T01:38:16;98867.03;;;22.20;72.55
77685;BME280;66844;46.092;18.268;2023-09-19T01:38:49;98865.34;;;22.19;72.72
77685;BME280;66844;46.092;18.268;2023-09-19T01:39:21;98860.13;;;22.18;73.38
77685;BME280;66844;46.092;18.268;2023-09-19T01:40:00;98864.22;;;22.14;72.85
77685;BME280;66844;46.092;18.268;2023-09-19T01:40:50;98874.84;;;22.15;72.86
77685;BME280;66844;46.092;18.268;2023-09-19T01:42:05;98864.38;;;22.12;73.39
77685;BME280;66844;46.092;18.268;2023-09-19T01:43:37;98868.59;;;22.15;73.47
77685;BME280;66844;46.092;18.268;2023-09-19T01:44:51;98868.78;;;22.13;72.87
77685;BME280;66844;46.092;18.268;2023-09-19T01:45:56;98874.84;;;22.15;72.62
77685;BME280;66844;46.092;18.268;2023-09-19T01:46:35;98874.19;;;22.13;72.76
77685;BME280;66844;46.092;18.268;2023-09-19T01:47:32;98870.63;;;22.13;72.92
77685;BME280;66844;46.092;18.268;2023-09-19T01:49:44;98871.47;;;22.13;72.33
77685;BME280;66844;46.092;18.268;2023-09-19T01:50:38;98874.50;;;22.18;72.65
77685;BME280;66844;46.092;18.268;2023-09-19T01:51:20;98879.09;;;22.18;71.98
77685;BME280;66844;46.092;18.268;2023-09-19T01:52:31;98878.91;;;22.19;72.32
77685;BME280;66844;46.092;18.268;2023-09-19T01:53:22;98870.78;;;22.19;71.73
77685;BME280;66844;46.092;18.268;2023-09-19T01:54:03;98871.63;;;22.20;71.86
77685;BME280;66844;46.092;18.268;2023-09-19T01:54:46;98867.69;;;22.22;71.89
77685;BME280;66844;46.092;18.268;2023-09-19T01:55:20;98868.53;;;22.23;71.19
77685;BME280;66844;46.092;18.268;2023-09-19T01:55:55;98864.66;;;22.26;70.97
77685;BME280;66844;46.092;18.268;2023-09-19T01:56:41;98867.53;;;22.24;70.94
77685;BME280;66844;46.092;18.268;2023-09-19T01:57:54;98869.88;;;22.27;70.86
77685;BME280;66844;46.092;18.268;2023-09-19T01:58:42;98867.84;;;22.29;70.96
77685;BME280;66844;46.092;18.268;2023-09-19T01:59:23;98867.66;;;22.31;70.95
77685;BME280;66844;46.092;18.268;2023-09-19T02:00:03;98862.06;;;22.32;71.13
77685;BME280;66844;46.092;18.268;2023-09-19T02:00:41;98860.38;;;22.31;69.91
77685;BME280;66844;46.092;18.268;2023-09-19T02:01:20;98862.72;;;22.34;69.63
77685;BME280;66844;46.092;18.268;2023-09-19T02:01:55;98858.84;;;22.37;69.59
77685;BME280;66844;46.092;18.268;2023-09-19T02:02:29;98865.91;;;22.38;69.34
77685;BME280;66844;46.092;18.268;2023-09-19T02:03:02;98868.47;;;22.39;69.57
77685;BME280;66844;46.092;18.268;2023-09-19T02:03:36;98865.75;;;22.39;69.15
77685;BME280;66844;46.092;18.268;2023-09-19T02:04:09;98867.63;;;22.39;69.87
77685;BME280;66844;46.092;18.268;2023-09-19T02:04:42;98863.69;;;22.41;70.02
77685;BME280;66844;46.092;18.268;2023-09-19T02:05:22;98861.34;;;22.38;69.86
77685;BME280;66844;46.092;18.268;2023-09-19T02:05:56;98864.25;;;22.37;69.55
77685;BME280;66844;46.092;18.268;2023-09-19T02:06:28;98866.97;;;22.37;69.52
77685;BME280;66844;46.092;18.268;2023-09-19T02:07:00;98861.72;;;22.35;69.77
77685;BME280;66844;46.092;18.268;2023-09-19T02:07:32;98860.69;;;22.36;69.44
77685;BME280;66844;46.092;18.268;2023-09-19T02:08:05;98851.88;;;22.34;70.32
77685;BME280;66844;46.092;18.268;2023-09-19T02:08:37;98853.75;;;22.34;70.11
77685;BME280;66844;46.092;18.268;2023-09-19T02:09:09;98857.50;;;22.33;70.59
77685;BME280;66844;46.092;18.268;2023-09-19T02:09:41;98856.16;;;22.29;70.61
77685;BME280;66844;46.092;18.268;2023-09-19T02:10:14;98857.34;;;22.26;70.21
77685;BME280;66844;46.092;18.268;2023-09-19T02:10:46;98863.63;;;22.27;70.53
77685;BME280;66844;46.092;18.268;2023-09-19T02:11:21;98863.97;;;22.23;70.95
77685;BME280;66844;46.092;18.268;2023-09-19T02:11:53;98863.81;;;22.25;71.09
77685;BME280;66844;46.092;18.268;2023-09-19T02:12:27;98857.34;;;22.26;70.61
77685;BME280;66844;46.092;18.268;2023-09-19T02:13:00;98863.13;;;22.23;71.06
77685;BME280;66844;46.092;18.268;2023-09-19T02:13:32;98871.44;;;22.21;70.58
77685;BME280;66844;46.092;18.268;2023-09-19T02:14:04;98863.13;;;22.23;69.66
77685;BME280;66844;46.092;18.268;2023-09-19T02:14:40;98862.13;;;22.24;70.43
77685;BME280;66844;46.092;18.268;2023-09-19T02:15:12;98862.13;;;22.24;70.35
77685;BME280;66844;46.092;18.268;2023-09-19T02:15:47;98862.84;;;22.18;71.32
77685;BME280;66844;46.092;18.268;2023-09-19T02:16:20;98859.28;;;22.17;70.94
77685;BME280;66844;46.092;18.268;2023-09-19T02:16:52;98864.69;;;22.17;71.14
77685;BME280;66844;46.092;18.268;2023-09-19T02:17:25;98863.66;;;22.18;71.46
77685;BME280;66844;46.092;18.268;2023-09-19T02:17:57;98862.16;;;22.16;70.90
77685;BME280;66844;46.092;18.268;2023-09-19T02:18:31;98858.59;;;22.15;70.96
77685;BME280;66844;46.092;18.268;2023-09-19T02:19:03;98865.34;;;22.19;70.17
77685;BME280;66844;46.092;18.268;2023-09-19T02:19:38;98862.63;;;22.19;70.35
77685;BME280;66844;46.092;18.268;2023-09-19T02:20:11;98867.03;;;22.20;69.63
77685;BME280;66844;46.092;18.268;2023-09-19T02:20:46;98864.16;;;22.22;69.44
77685;BME280;66844;46.092;18.268;2023-09-19T02:21:19;98863.97;;;22.23;69.13
77685;BME280;66844;46.092;18.268;2023-09-19T02:21:53;98862.13;;;22.24;69.01
77685;BME280;66844;46.092;18.268;2023-09-19T02:22:25;98864.66;;;22.26;69.24
77685;BME280;66844;46.092;18.268;2023-09-19T02:22:57;98868.19;;;22.26;69.67
77685;BME280;66844;46.092;18.268;2023-09-19T02:23:29;98869.88;;;22.27;68.78
77685;BME280;66844;46.092;18.268;2023-09-19T02:24:01;98861.59;;;22.29;68.54
77685;BME280;66844;46.092;18.268;2023-09-19T02:24:34;98858.19;;;22.27;68.95
77685;BME280;66844;46.092;18.268;2023-09-19T02:25:07;98867.16;;;22.27;69.21
77685;BME280;66844;46.092;18.268;2023-09-19T02:25:40;98865.31;;;22.28;68.89
77685;BME280;66844;46.092;18.268;2023-09-19T02:26:13;98864.94;;;22.31;68.60
77685;BME280;66844;46.092;18.268;2023-09-19T02:26:45;98861.22;;;22.32;68.77
77685;BME280;66844;46.092;18.268;2023-09-19T02:27:17;98857.50;;;22.33;68.81
77685;BME280;66844;46.092;18.268;2023-09-19T02:27:49;98856.81;;;22.31;68.84
77685;BME280;66844;46.092;18.268;2023-09-19T02:28:28;98857.34;;;22.26;68.79
77685;BME280;66844;46.092;18.268;2023-09-19T02:29:02;98857.72;;;22.23;69.54
77685;BME280;66844;46.092;18.268;2023-09-19T02:29:36;98855.19;;;22.21;69.81
77685;BME280;66844;46.092;18.268;2023-09-19T02:30:08;98855.84;;;22.23;69.57
77685;BME280;66844;46.092;18.268;2023-09-19T02:30:40;98858.06;;;22.20;69.54
77685;BME280;66844;46.092;18.268;2023-09-19T02:31:12;98856.38;;;22.19;69.56
77685;BME280;66844;46.092;18.268;2023-09-19T02:31:44;98865.19;;;22.21;69.75
77685;BME280;66844;46.092;18.268;2023-09-19T02:32:18;98854.72;;;22.18;69.61
77685;BME280;66844;46.092;18.268;2023-09-19T02:32:50;98865.34;;;22.19;69.25
77685;BME280;66844;46.092;18.268;2023-09-19T02:33:22;98857.22;;;22.19;69.79
77685;BME280;66844;46.092;18.268;2023-09-19T02:33:54;98860.94;;;22.18;69.39
77685;BME280;66844;46.092;18.268;2023-09-19T02:34:26;98860.63;;;22.21;69.65
77685;BME280;66844;46.092;18.268;2023-09-19T02:34:59;98856.38;;;22.19;69.48
77685;BME280;66844;46.092;18.268;2023-09-19T02:35:30;98864.84;;;22.16;69.76
77685;BME280;66844;46.092;18.268;2023-09-19T02:36:08;98860.13;;;22.18;70.12
77685;BME280;66844;46.092;18.268;2023-09-19T02:36:40;98859.94;;;22.19;69.05
77685;BME280;66844;46.092;18.268;2023-09-19T02:37:12;98863.50;;;22.20;69.30
77685;BME280;66844;46.092;18.268;2023-09-19T02:37:45;98861.13;;;22.17;69.78
77685;BME280;66844;46.092;18.268;2023-09-19T02:38:18;98866.56;;;22.17;69.44
77685;BME280;66844;46.092;18.268;2023-09-19T02:38:52;98860.66;;;22.13;69.83
77685;BME280;66844;46.092;18.268;2023-09-19T02:39:24;98872.13;;;22.15;69.91
77685;BME280;66844;46.092;18.268;2023-09-19T02:39:56;98867.56;;;22.16;69.08
77685;BME280;66844;46.092;18.268;2023-09-19T02:40:28;98861.66;;;22.12;70.10
77685;BME280;66844;46.092;18.268;2023-09-19T02:41:00;98871.16;;;22.08;70.15
77685;BME280;66844;46.092;18.268;2023-09-19T02:41:33;98865.94;;;22.07;70.56
77685;BME280;66844;46.092;18.268;2023-09-19T02:42:05;98863.56;;;22.04;70.78
77685;BME280;66844;46.092;18.268;2023-09-19T02:42:37;98871.03;;;22.02;70.44
77685;BME280;66844;46.092;18.268;2023-09-19T02:43:09;98871.03;;;22.02;70.72
77685;BME280;66844;46.092;18.268;2023-09-19T02:43:41;98867.13;;;21.96;70.80
77685;BME280;66844;46.092;18.268;2023-09-19T02:44:14;98871.06;;;21.94;70.81
77685;BME280;66844;46.092;18.268;2023-09-19T02:44:46;98868.34;;;21.94;71.13
77685;BME280;66844;46.092;18.268;2023-09-19T02:45:20;98874.97;;;21.91;71.47
77685;BME280;66844;46.092;18.268;2023-09-19T02:45:52;98863.94;;;21.93;71.83
77685;BME280;66844;46.092;18.268;2023-09-19T02:46:27;98867.16;;;21.88;71.77
77685;BME280;66844;46.092;18.268;2023-09-19T02:46:59;98869.19;;;21.86;71.50
77685;BME280;66844;46.092;18.268;2023-09-19T02:47:31;98868.34;;;21.86;71.63
77685;BME280;66844;46.092;18.268;2023-09-19T02:48:04;98864.78;;;21.85;71.68
77685;BME280;66844;46.092;18.268;2023-09-19T02:48:36;98866.31;;;21.88;71.70
77685;BME280;66844;46.092;18.268;2023-09-19T02:49:08;98872.75;;;21.87;71.56
77685;BME280;66844;46.092;18.268;2023-09-19T02:49:40;98865.13;;;21.82;71.97
77685;BME280;66844;46.092;18.268;2023-09-19T02:50:13;98872.59;;;21.80;71.89
77685;BME280;66844;46.092;18.268;2023-09-19T02:50:50;98863.78;;;21.78;72.45
77685;BME280;66844;46.092;18.268;2023-09-19T02:51:22;98870.91;;;21.79;72.66
77685;BME280;66844;46.092;18.268;2023-09-19T02:51:54;98870.06;;;21.78;72.12
77685;BME280;66844;46.092;18.268;2023-09-19T02:52:26;98868.38;;;21.77;72.96
77685;BME280;66844;46.092;18.268;2023-09-19T02:52:59;98864.66;;;21.78;72.89
77685;BME280;66844;46.092;18.268;2023-09-19T02:53:31;98873.63;;;21.79;72.17
77685;BME280;66844;46.092;18.268;2023-09-19T02:54:03;98869.41;;;21.76;72.53
77685;BME280;66844;46.092;18.268;2023-09-19T02:54:35;98865.50;;;21.71;73.06
77685;BME280;66844;46.092;18.268;2023-09-19T02:55:08;98876.53;;;21.69;72.90
77685;BME280;66844;46.092;18.268;2023-09-19T02:55:41;98874.16;;;21.66;73.17
77685;BME280;66844;46.092;18.268;2023-09-19T02:56:14;98878.56;;;21.67;73.96
77685;BME280;66844;46.092;18.268;2023-09-19T02:56:47;98874.84;;;21.68;73.91
77685;BME280;66844;46.092;18.268;2023-09-19T02:57:19;98880.41;;;21.67;73.81
77685;BME280;66844;46.092;18.268;2023-09-19T02:57:53;98872.66;;;21.64;73.61
77685;BME280;66844;46.092;18.268;2023-09-19T02:58:26;98872.16;;;21.60;73.90
77685;BME280;66844;46.092;18.268;2023-09-19T02:58:59;98869.44;;;21.60;74.45
77685;BME280;66844;46.092;18.268;2023-09-19T02:59:32;98876.72;;;21.60;73.84
77685;BME280;66844;46.092;18.268;2023-09-19T03:00:04;98874.72;;;21.54;74.48
77685;BME280;66844;46.092;18.268;2023-09-19T03:00:37;98877.41;;;21.54;74.53
77685;BME280;66844;46.092;18.268;2023-09-19T03:01:12;98879.28;;;21.53;74.46
77685;BME280;66844;46.092;18.268;2023-09-19T03:01:44;98878.44;;;21.53;75.06
77685;BME280;66844;46.092;18.268;2023-09-19T03:02:20;98871.50;;;21.50;74.65
77685;BME280;66844;46.092;18.268;2023-09-19T03:02:54;98879.97;;;21.47;75.16
77685;BME280;66844;46.092;18.268;2023-09-19T03:03:27;98878.28;;;21.46;75.02
77685;BME280;66844;46.092;18.268;2023-09-19T03:04:00;98880.28;;;21.44;75.59
77685;BME280;66844;46.092;18.268;2023-09-19T03:04:32;98875.56;;;21.46;75.11
77685;BME280;66844;46.092;18.268;2023-09-19T03:05:06;98875.72;;;21.45;75.04
77685;BME280;66844;46.092;18.268;2023-09-19T03:05:39;98879.78;;;21.41;75.65
77685;BME280;66844;46.092;18.268;2023-09-19T03:06:11;98874.41;;;21.33;75.75
77685;BME280;66844;46.092;18.268;2023-09-19T03:06:45;98878.13;;;21.32;75.67
77685;BME280;66844;46.092;18.268;2023-09-19T03:07:17;98877.63;;;21.28;75.92
77685;BME280;66844;46.092;18.268;2023-09-19T03:07:50;98875.44;;;21.23;76.34
77685;BME280;66844;46.092;18.268;2023-09-19T03:08:22;98879.16;;;21.22;76.60
77685;BME280;66844;46.092;18.268;2023-09-19T03:08:55;98879.34;;;21.21;76.59
77685;BME280;66844;46.092;18.268;2023-09-19T03:09:27;98874.59;;;21.23;76.39
77685;BME280;66844;46.092;18.268;2023-09-19T03:09:59;98885.59;;;21.21;76.55
77685;BME280;66844;46.092;18.268;2023-09-19T03:10:31;98875.78;;;21.20;76.04
77685;BME280;66844;46.092;18.268;2023-09-19T03:11:03;98883.41;;;21.17;76.48
77685;BME280;66844;46.092;18.268;2023-09-19T03:11:38;98883.91;;;21.12;76.78
77685;BME280;66844;46.092;18.268;2023-09-19T03:12:12;98878.63;;;21.03;77.13
77685;BME280;66844;46.092;18.268;2023-09-19T03:12:47;98894.69;;;21.04;76.97
77685;BME280;66844;46.092;18.268;2023-09-19T03:13:19;98896.53;;;21.04;76.98
77685;BME280;66844;46.092;18.268;2023-09-19T03:13:53;98886.22;;;20.99;77.64
77685;BME280;66844;46.092;18.268;2023-09-19T03:14:25;98888.25;;;20.97;77.62
77685;BME280;66844;46.092;18.268;2023-09-19T03:15:02;98888.25;;;20.97;77.24
77685;BME280;66844;46.092;18.268;2023-09-19T03:15:36;98885.72;;;20.96;77.58
77685;BME280;66844;46.092;18.268;2023-09-19T03:16:11;98889.25;;;20.96;77.60
77685;BME280;66844;46.092;18.268;2023-09-19T03:16:46;98876.78;;;20.95;77.79
77685;BME280;66844;46.092;18.268;2023-09-19T03:17:18;98882.00;;;20.97;77.57
77685;BME280;66844;46.092;18.268;2023-09-19T03:17:52;98880.00;;;20.99;77.17
77685;BME280;66844;46.092;18.268;2023-09-19T03:18:25;98881.66;;;21.00;77.33